createdAt,value
2018-03-25T00:00:38.594Z,95.20
2018-03-25T00:03:06.143Z,95.20
2018-03-25T00:05:33.906Z,95.10
2018-03-25T00:08:01.641Z,95.60
2018-03-25T00:10:29.251Z,95.50
2018-03-25T00:12:56.885Z,95.30
2018-03-25T00:15:24.472Z,95.30
2018-03-25T00:17:52.017Z,95.20
2018-03-25T00:20:19.624Z,95.10
2018-03-25T00:22:47.212Z,95.10
2018-03-25T00:25:14.773Z,95.00
2018-03-25T00:27:42.351Z,95.10
2018-03-25T00:30:10.197Z,94.90
2018-03-25T00:32:37.818Z,94.80
2018-03-25T00:35:05.367Z,94.80
2018-03-25T00:37:33.001Z,95.10
2018-03-25T00:40:00.755Z,95.00
2018-03-25T00:42:28.315Z,95.10
2018-03-25T00:44:55.936Z,95.10
2018-03-25T00:47:24.249Z,94.90
2018-03-25T00:49:51.811Z,94.90
2018-03-25T00:52:19.398Z,95.00
2018-03-25T00:54:46.970Z,95.20
2018-03-25T00:57:14.517Z,95.10
2018-03-25T00:59:42.150Z,95.20
2018-03-25T01:02:09.709Z,94.90
2018-03-25T01:04:37.341Z,94.80
2018-03-25T01:07:05.000Z,94.90
2018-03-25T01:09:32.558Z,94.90
2018-03-25T01:12:00.102Z,94.80
2018-03-25T01:14:27.702Z,94.90
2018-03-25T01:16:55.252Z,95.00
2018-03-25T01:19:22.806Z,94.80
2018-03-25T01:21:50.381Z,94.90
2018-03-25T01:24:18.238Z,94.70
2018-03-25T01:26:45.785Z,94.80
2018-03-25T01:29:13.384Z,94.80
2018-03-25T01:31:40.938Z,94.80
2018-03-25T01:34:08.490Z,94.70
2018-03-25T01:36:36.077Z,94.90
2018-03-25T01:39:03.698Z,95.00
2018-03-25T01:41:31.249Z,95.20
2018-03-25T01:43:58.830Z,95.10
2018-03-25T01:46:26.373Z,94.90
2018-03-25T01:48:53.927Z,94.90
2018-03-25T01:51:21.570Z,94.80
2018-03-25T01:53:49.118Z,94.90
2018-03-25T01:56:16.678Z,94.80
2018-03-25T01:58:44.311Z,94.90
2018-03-25T02:01:11.880Z,95.00
2018-03-25T02:03:39.438Z,94.90
2018-03-25T02:06:07.861Z,94.90
2018-03-25T02:08:35.585Z,94.90
2018-03-25T02:11:03.945Z,95.10
2018-03-25T02:13:31.593Z,95.10
2018-03-25T02:16:00.750Z,95.30
2018-03-25T02:18:28.298Z,95.30
2018-03-25T02:20:55.958Z,95.10
2018-03-25T02:23:23.503Z,95.10
2018-03-25T02:25:51.053Z,95.10
2018-03-25T02:28:19.441Z,95.10
2018-03-25T02:30:47.080Z,95.10
2018-03-25T02:33:14.651Z,95.30
2018-03-25T02:35:42.298Z,95.10
2018-03-25T02:38:10.618Z,95.20
2018-03-25T02:40:38.172Z,95.20
2018-03-25T02:43:05.759Z,95.30
2018-03-25T02:45:33.310Z,95.30
2018-03-25T02:48:00.924Z,95.30
2018-03-25T02:50:28.517Z,95.60
2018-03-25T02:52:56.069Z,95.30
2018-03-25T02:55:23.616Z,95.30
2018-03-25T02:57:51.206Z,95.30
2018-03-25T03:00:18.761Z,95.10
2018-03-25T03:02:46.341Z,95.00
2018-03-25T03:05:14.169Z,95.10
2018-03-25T03:07:41.758Z,94.90
2018-03-25T03:10:09.474Z,95.20
2018-03-25T03:12:37.073Z,95.00
2018-03-25T03:15:04.694Z,95.10
2018-03-25T03:17:32.250Z,95.10
2018-03-25T03:20:00.135Z,95.20
2018-03-25T03:22:27.681Z,95.10
2018-03-25T03:24:55.289Z,95.10
2018-03-25T03:27:22.872Z,95.10
2018-03-25T03:29:50.545Z,95.10
2018-03-25T03:32:18.094Z,95.20
2018-03-25T03:34:46.437Z,95.50
2018-03-25T03:37:15.492Z,95.50
2018-03-25T03:39:43.048Z,95.50
2018-03-25T03:42:10.649Z,95.70
2018-03-25T03:44:38.203Z,95.60
2018-03-25T03:47:05.745Z,95.30
2018-03-25T03:49:33.390Z,95.30
2018-03-25T03:52:00.937Z,95.50
2018-03-25T03:54:28.545Z,95.70
2018-03-25T03:56:56.170Z,95.90
2018-03-25T03:59:23.723Z,95.90
2018-03-25T04:01:51.273Z,95.70
2018-03-25T04:04:18.996Z,95.70
2018-03-25T04:06:47.310Z,95.40
2018-03-25T04:09:14.861Z,95.40
2018-03-25T04:11:42.750Z,95.40
2018-03-25T04:14:10.511Z,95.60
2018-03-25T04:16:38.061Z,95.80
2018-03-25T04:19:05.653Z,95.70
2018-03-25T04:21:33.197Z,96.00
2018-03-25T04:24:00.744Z,96.10
2018-03-25T04:26:28.396Z,96.10
2018-03-25T04:28:55.961Z,95.90
2018-03-25T04:31:23.521Z,96.00
2018-03-25T04:33:51.097Z,95.40
2018-03-25T04:36:18.647Z,95.50
2018-03-25T04:38:46.198Z,95.40
2018-03-25T04:41:13.781Z,95.80
2018-03-25T04:43:41.334Z,95.60
2018-03-25T04:46:08.941Z,95.50
2018-03-25T04:48:37.302Z,95.60
2018-03-25T04:51:04.861Z,95.60
2018-03-25T04:53:33.174Z,95.70
2018-03-25T04:56:00.775Z,95.70
2018-03-25T04:58:28.395Z,96.10
2018-03-25T05:00:55.905Z,96.10
2018-03-25T05:03:23.488Z,96.10
2018-03-25T05:05:51.207Z,96.80
2018-03-25T05:08:18.754Z,97.00
2018-03-25T05:10:46.688Z,96.30
2018-03-25T05:13:14.820Z,97.00
2018-03-25T05:15:42.395Z,96.70
2018-03-25T05:18:09.985Z,96.50
2018-03-25T05:20:37.534Z,96.40
2018-03-25T05:23:05.090Z,96.20
2018-03-25T05:25:32.878Z,95.80
2018-03-25T05:28:00.489Z,96.00
2018-03-25T05:30:28.009Z,96.20
2018-03-25T05:32:55.591Z,96.20
2018-03-25T05:35:23.146Z,95.60
2018-03-25T05:37:51.460Z,96.00
2018-03-25T05:40:19.062Z,96.00
2018-03-25T05:42:46.666Z,96.00
2018-03-25T05:45:14.223Z,95.80
2018-03-25T05:47:42.586Z,96.20
2018-03-25T05:50:10.141Z,96.20
2018-03-25T05:52:37.700Z,96.00
2018-03-25T05:55:05.314Z,95.80
2018-03-25T05:57:32.881Z,95.80
2018-03-25T06:00:00.434Z,96.00
2018-03-25T06:02:28.023Z,96.00
2018-03-25T06:04:55.589Z,96.20
2018-03-25T06:07:23.184Z,95.90
2018-03-25T06:09:50.768Z,96.20
2018-03-25T06:12:18.597Z,96.10
2018-03-25T06:14:46.278Z,96.10
2018-03-25T06:17:13.866Z,96.00
2018-03-25T06:19:41.427Z,95.70
2018-03-25T06:22:08.985Z,95.60
2018-03-25T06:24:36.576Z,95.60
2018-03-25T06:27:05.813Z,95.90
2018-03-25T06:29:33.361Z,95.90
2018-03-25T06:32:01.116Z,95.80
2018-03-25T06:34:28.670Z,95.50
2018-03-25T06:36:56.990Z,95.60
2018-03-25T06:39:24.587Z,95.60
2018-03-25T06:41:52.913Z,95.40
2018-03-25T06:44:20.471Z,95.40
2018-03-25T06:46:48.057Z,94.70
2018-03-25T06:49:15.614Z,94.90
2018-03-25T06:51:43.228Z,95.00
2018-03-25T06:54:10.884Z,94.70
2018-03-25T06:56:38.430Z,94.30
2018-03-25T06:59:06.738Z,94.20
2018-03-25T07:01:34.470Z,94.30
2018-03-25T07:04:02.022Z,94.30
2018-03-25T07:06:30.355Z,93.60
2018-03-25T07:08:57.954Z,93.60
2018-03-25T07:11:26.274Z,93.40
2018-03-25T07:13:53.821Z,93.40
2018-03-25T07:16:21.520Z,93.50
2018-03-25T07:18:49.251Z,92.40
2018-03-25T07:21:17.001Z,92.70
2018-03-25T07:23:44.754Z,92.20
2018-03-25T07:26:12.306Z,92.30
2018-03-25T07:28:39.982Z,92.20
2018-03-25T07:31:08.037Z,91.60
2018-03-25T07:33:35.826Z,91.60
2018-03-25T07:36:03.600Z,90.40
2018-03-25T07:38:31.182Z,88.40
2018-03-25T07:40:58.784Z,88.40
2018-03-25T07:43:27.209Z,85.50
2018-03-25T07:45:54.993Z,85.40
2018-03-25T07:48:22.554Z,85.00
2018-03-25T07:50:50.106Z,83.40
2018-03-25T07:53:17.953Z,82.50
2018-03-25T07:55:45.750Z,82.40
2018-03-25T07:58:14.063Z,79.90
2018-03-25T08:00:41.642Z,80.00
2018-03-25T08:03:09.214Z,78.50
2018-03-25T08:05:36.764Z,78.30
2018-03-25T08:08:05.169Z,76.00
2018-03-25T08:10:32.731Z,76.10
2018-03-25T08:13:01.076Z,75.20
2018-03-25T08:15:28.841Z,75.10
2018-03-25T08:17:56.879Z,77.00
2018-03-25T08:20:24.422Z,74.30
2018-03-25T08:22:52.763Z,74.00
2018-03-25T08:25:20.494Z,74.00
2018-03-25T08:27:48.081Z,69.80
2018-03-25T08:30:15.697Z,73.40
2018-03-25T08:32:43.277Z,69.90
2018-03-25T08:35:10.975Z,68.80
2018-03-25T08:37:39.624Z,71.70
2018-03-25T08:40:07.324Z,71.70
2018-03-25T08:42:34.974Z,67.40
2018-03-25T08:45:02.558Z,66.10
2018-03-25T08:47:30.185Z,69.70
2018-03-25T08:49:57.789Z,65.20
2018-03-25T08:52:26.133Z,62.60
2018-03-25T08:54:53.680Z,62.60
2018-03-25T08:57:22.053Z,64.20
2018-03-25T08:59:49.866Z,64.20
2018-03-25T09:02:18.280Z,62.30
2018-03-25T09:04:45.902Z,62.20
2018-03-25T09:07:13.517Z,61.60
2018-03-25T09:09:41.223Z,62.40
2018-03-25T09:12:09.201Z,57.10
2018-03-25T09:14:36.874Z,58.30
2018-03-25T09:17:04.435Z,57.80
2018-03-25T09:19:32.314Z,58.20
2018-03-25T09:21:59.991Z,56.60
2018-03-25T09:24:28.073Z,56.50
2018-03-25T09:26:55.644Z,55.00
2018-03-25T09:29:23.263Z,56.10
2018-03-25T09:31:50.814Z,56.20
2018-03-25T09:34:18.462Z,55.30
2018-03-25T09:36:46.041Z,54.80
2018-03-25T09:39:13.778Z,54.80
2018-03-25T09:41:41.557Z,53.00
2018-03-25T09:44:09.283Z,53.70
2018-03-25T09:46:37.234Z,52.20
2018-03-25T09:49:04.791Z,53.40
2018-03-25T09:51:34.013Z,53.00
2018-03-25T09:54:02.470Z,50.80
2018-03-25T09:56:30.307Z,50.80
2018-03-25T09:58:58.026Z,52.00
2018-03-25T10:01:45.981Z,49.30
2018-03-25T10:04:13.758Z,49.20
2018-03-25T10:06:41.311Z,48.70
2018-03-25T10:09:09.081Z,50.50
2018-03-25T10:11:37.005Z,52.10
2018-03-25T10:14:05.342Z,50.50
2018-03-25T10:16:33.529Z,50.50
2018-03-25T10:19:01.231Z,51.40
2018-03-25T10:21:29.251Z,50.90
2018-03-25T10:23:56.860Z,49.30
2018-03-25T10:26:25.794Z,53.50
2018-03-25T10:28:53.374Z,51.40
2018-03-25T10:31:21.074Z,52.20
2018-03-25T10:33:48.682Z,49.20
2018-03-25T10:36:16.261Z,50.00
2018-03-25T10:38:43.839Z,51.80
2018-03-25T10:41:11.778Z,50.80
2018-03-25T10:43:39.453Z,48.50
2018-03-25T10:46:07.143Z,44.80
2018-03-25T10:48:35.128Z,44.90
2018-03-25T10:51:02.692Z,45.20
2018-03-25T10:53:30.329Z,48.50
2018-03-25T10:55:57.919Z,49.10
2018-03-25T10:58:25.524Z,46.60
2018-03-25T11:00:53.438Z,47.20
2018-03-25T11:03:21.285Z,42.20
2018-03-25T11:05:48.860Z,47.40
2018-03-25T11:08:16.444Z,47.60
2018-03-25T11:10:45.317Z,44.20
2018-03-25T11:13:12.900Z,41.50
2018-03-25T11:15:40.466Z,45.60
2018-03-25T11:18:08.291Z,41.50
2018-03-25T11:20:35.885Z,48.10
2018-03-25T11:23:03.547Z,45.50
2018-03-25T11:25:31.446Z,44.00
2018-03-25T11:27:59.009Z,43.10
2018-03-25T11:30:26.597Z,44.10
2018-03-25T11:32:54.382Z,44.50
2018-03-25T11:35:22.367Z,43.40
2018-03-25T11:37:49.986Z,42.20
2018-03-25T11:40:18.413Z,39.90
2018-03-25T11:42:46.735Z,40.60
2018-03-25T11:45:14.278Z,40.60
2018-03-25T11:47:42.149Z,43.30
2018-03-25T11:50:09.700Z,44.60
2018-03-25T11:52:37.385Z,44.10
2018-03-25T11:55:04.998Z,42.40
2018-03-25T11:57:32.563Z,45.00
2018-03-25T12:00:01.082Z,47.00
2018-03-25T12:02:28.727Z,47.00
2018-03-25T12:04:56.345Z,43.40
2018-03-25T12:07:24.171Z,44.50
2018-03-25T12:09:51.770Z,40.50
2018-03-25T12:12:19.324Z,39.70
2018-03-25T12:14:47.128Z,40.50
2018-03-25T12:17:14.718Z,44.50
2018-03-25T12:19:42.694Z,40.40
2018-03-25T12:22:10.435Z,42.30
2018-03-25T12:24:38.323Z,45.00
2018-03-25T12:27:05.882Z,42.20
2018-03-25T12:29:33.915Z,40.80
2018-03-25T12:32:01.679Z,45.40
2018-03-25T12:34:29.257Z,45.10
2018-03-25T12:36:56.804Z,43.40
2018-03-25T12:39:24.664Z,43.70
2018-03-25T12:41:52.215Z,45.60
2018-03-25T12:44:19.940Z,45.20
2018-03-25T12:46:47.619Z,42.90
2018-03-25T12:49:15.951Z,43.80
2018-03-25T12:51:43.521Z,43.70
2018-03-25T12:54:11.114Z,44.30
2018-03-25T12:56:38.716Z,39.60
2018-03-25T12:59:06.529Z,38.20
2018-03-25T13:01:34.928Z,40.70
2018-03-25T13:04:02.518Z,40.70
2018-03-25T13:06:30.577Z,43.00
2018-03-25T13:08:58.179Z,45.50
2018-03-25T13:11:26.010Z,46.40
2018-03-25T13:13:54.087Z,46.20
2018-03-25T13:16:21.828Z,48.00
2018-03-25T13:18:49.610Z,45.70
2018-03-25T13:21:17.528Z,46.00
2018-03-25T13:23:46.246Z,47.80
2018-03-25T13:26:14.005Z,47.90
2018-03-25T13:28:41.592Z,46.60
2018-03-25T13:31:09.386Z,46.50
2018-03-25T13:33:36.938Z,47.40
2018-03-25T13:36:04.913Z,47.30
2018-03-25T13:38:32.647Z,48.40
2018-03-25T13:41:00.241Z,47.50
2018-03-25T13:43:28.805Z,48.50
2018-03-25T13:45:56.951Z,48.40
2018-03-25T13:48:25.132Z,49.70
2018-03-25T13:50:52.945Z,48.30
2018-03-25T13:53:21.365Z,48.90
2018-03-25T13:55:49.101Z,48.80
2018-03-25T13:58:16.696Z,47.70
2018-03-25T14:00:44.657Z,46.40
2018-03-25T14:03:12.368Z,48.20
2018-03-25T14:05:40.430Z,45.90
2018-03-25T14:08:08.070Z,48.50
2018-03-25T14:10:35.665Z,53.50
2018-03-25T14:13:04.290Z,52.50
2018-03-25T14:15:31.963Z,52.50
2018-03-25T14:17:59.548Z,55.10
2018-03-25T14:20:28.634Z,54.90
2018-03-25T14:22:56.599Z,54.90
2018-03-25T14:25:24.277Z,56.30
2018-03-25T14:27:52.349Z,55.60
2018-03-25T14:30:19.960Z,55.40
2018-03-25T14:32:47.521Z,54.00
2018-03-25T14:35:15.262Z,53.90
2018-03-25T14:37:43.251Z,55.40
2018-03-25T14:40:11.034Z,54.50
2018-03-25T14:42:38.678Z,53.40
2018-03-25T14:45:06.743Z,55.50
2018-03-25T14:47:34.311Z,55.60
2018-03-25T14:50:02.053Z,55.30
2018-03-25T14:52:30.016Z,56.10
2018-03-25T14:54:58.557Z,55.40
2018-03-25T14:57:26.807Z,57.30
2018-03-25T14:59:54.415Z,55.40
2018-03-25T15:02:22.741Z,56.10
2018-03-25T15:04:50.290Z,56.10
2018-03-25T15:07:18.032Z,57.80
2018-03-25T15:09:45.794Z,57.80
2018-03-25T15:12:13.343Z,56.90
2018-03-25T15:14:40.927Z,59.10
2018-03-25T15:17:08.497Z,57.60
2018-03-25T15:19:36.134Z,58.30
2018-03-25T15:22:03.752Z,58.00
2018-03-25T15:24:31.948Z,57.10
2018-03-25T15:26:59.711Z,55.20
2018-03-25T15:29:27.863Z,54.40
2018-03-25T15:31:55.576Z,56.10
2018-03-25T15:34:23.145Z,56.90
2018-03-25T15:36:51.259Z,56.70
2018-03-25T15:39:19.069Z,56.00
2018-03-25T15:41:46.661Z,55.20
2018-03-25T15:44:14.395Z,56.50
2018-03-25T15:46:42.129Z,58.60
2018-03-25T15:49:10.037Z,58.70
2018-03-25T15:51:37.733Z,59.30
2018-03-25T15:54:06.088Z,59.70
2018-03-25T15:56:33.986Z,59.70
2018-03-25T15:59:02.064Z,60.20
2018-03-25T16:01:29.876Z,61.00
2018-03-25T16:03:57.798Z,60.90
2018-03-25T16:06:25.400Z,57.50
2018-03-25T16:08:53.148Z,58.30
2018-03-25T16:11:21.069Z,55.00
2018-03-25T16:13:49.156Z,55.40
2018-03-25T16:16:16.745Z,55.60
2018-03-25T16:18:44.423Z,56.60
2018-03-25T16:21:12.996Z,57.70
2018-03-25T16:23:40.571Z,56.90
2018-03-25T16:26:08.214Z,55.80
2018-03-25T16:28:35.937Z,56.70
2018-03-25T16:31:04.555Z,57.90
2018-03-25T16:33:32.211Z,57.90
2018-03-25T16:35:59.809Z,56.50
2018-03-25T16:38:27.389Z,57.30
2018-03-25T16:40:55.704Z,57.80
2018-03-25T16:43:23.493Z,57.80
2018-03-25T16:45:51.179Z,59.50
2018-03-25T16:48:18.736Z,59.50
2018-03-25T16:50:46.378Z,59.10
2018-03-25T16:53:14.112Z,59.10
2018-03-25T16:55:41.691Z,60.60
2018-03-25T16:58:09.304Z,59.70
2018-03-25T17:00:37.078Z,58.30
2018-03-25T17:03:04.810Z,60.70
2018-03-25T17:05:33.154Z,60.90
2018-03-25T17:08:00.703Z,60.90
2018-03-25T17:10:28.333Z,61.40
2018-03-25T17:12:55.922Z,62.20
2018-03-25T17:15:23.472Z,64.10
2018-03-25T17:17:51.047Z,65.70
2018-03-25T17:20:19.031Z,63.90
2018-03-25T17:22:47.505Z,66.10
2018-03-25T17:25:15.435Z,66.10
2018-03-25T17:27:43.275Z,67.90
2018-03-25T17:30:11.641Z,69.50
2018-03-25T17:32:39.342Z,69.40
2018-03-25T17:35:06.954Z,70.80
2018-03-25T17:37:36.019Z,72.30
2018-03-25T17:40:04.068Z,71.50
2018-03-25T17:42:32.135Z,72.10
2018-03-25T17:44:59.998Z,72.90
2018-03-25T17:47:27.570Z,72.00
2018-03-25T17:49:55.206Z,72.10
2018-03-25T17:52:22.772Z,72.00
2018-03-25T17:54:50.325Z,72.80
2018-03-25T17:57:18.044Z,72.10
2018-03-25T17:59:46.546Z,72.70
2018-03-25T18:02:15.193Z,73.60
2018-03-25T18:04:43.574Z,74.50
2018-03-25T18:07:12.835Z,74.20
2018-03-25T18:09:40.406Z,74.20
2018-03-25T18:12:08.030Z,76.70
2018-03-25T18:14:35.802Z,77.20
2018-03-25T18:17:03.369Z,77.60
2018-03-25T18:19:31.068Z,78.10
2018-03-25T18:21:58.759Z,77.30
2018-03-25T18:24:27.246Z,78.60
2018-03-25T18:26:55.052Z,78.60
2018-03-25T18:29:22.681Z,79.90
2018-03-25T18:31:50.579Z,79.70
2018-03-25T18:34:18.443Z,80.60
2018-03-25T18:36:46.018Z,81.70
2018-03-25T18:39:13.970Z,81.90
2018-03-25T18:41:41.822Z,83.10
2018-03-25T18:44:09.392Z,83.40
2018-03-25T18:46:36.987Z,84.30
2018-03-25T18:49:04.848Z,84.50
2018-03-25T18:51:33.211Z,85.30
2018-03-25T18:54:00.772Z,85.30
2018-03-25T18:56:28.395Z,84.50
2018-03-25T18:58:55.959Z,85.50
2018-03-25T19:01:23.547Z,85.30
2018-03-25T19:03:51.956Z,86.50
2018-03-25T19:06:19.543Z,86.00
2018-03-25T19:08:47.151Z,86.70
2018-03-25T19:11:14.764Z,87.70
2018-03-25T19:13:42.319Z,87.20
2018-03-25T19:16:10.098Z,88.30
2018-03-25T19:18:38.156Z,88.10
2018-03-25T19:21:05.702Z,88.30
2018-03-25T19:23:34.322Z,88.10
2018-03-25T19:26:02.239Z,88.10
2018-03-25T19:28:30.836Z,89.20
2018-03-25T19:30:58.806Z,89.20
2018-03-25T19:33:26.671Z,90.30
2018-03-25T19:35:54.929Z,89.80
2018-03-25T19:38:23.642Z,90.00
2018-03-25T19:40:51.547Z,89.80
2018-03-25T19:43:19.142Z,90.10
2018-03-25T19:45:47.622Z,90.30
2018-03-25T19:48:16.660Z,90.30
2018-03-25T19:50:44.449Z,90.30
2018-03-25T19:53:12.014Z,90.30
2018-03-25T19:55:40.392Z,90.30
2018-03-25T19:58:08.027Z,90.30
2018-03-25T20:00:35.598Z,90.80
2018-03-25T20:03:03.336Z,90.70
2018-03-25T20:05:30.961Z,91.00
2018-03-25T20:07:59.439Z,90.90
2018-03-25T20:10:27.823Z,91.10
2018-03-25T20:12:55.416Z,91.10
2018-03-25T20:15:23.009Z,91.00
2018-03-25T20:17:50.740Z,91.00
2018-03-25T20:20:18.569Z,90.90
2018-03-25T20:22:46.989Z,91.20
2018-03-25T20:25:14.662Z,91.20
2018-03-25T20:27:42.683Z,91.20
2018-03-25T20:30:10.366Z,91.20
2018-03-25T20:32:38.034Z,91.30
2018-03-25T20:35:05.895Z,91.30
2018-03-25T20:37:33.617Z,91.30
2018-03-25T20:40:01.371Z,91.70
2018-03-25T20:42:28.954Z,91.40
2018-03-25T20:44:57.288Z,91.80
2018-03-25T20:47:24.910Z,92.10
2018-03-25T20:49:52.499Z,91.80
2018-03-25T20:52:20.082Z,92.00
2018-03-25T20:54:47.678Z,92.10
2018-03-25T20:57:15.233Z,92.20
2018-03-25T20:59:42.795Z,92.20
2018-03-25T21:02:10.450Z,92.00
2018-03-25T21:04:38.210Z,92.00
2018-03-25T21:07:05.766Z,91.80
2018-03-25T21:09:33.378Z,91.90
2018-03-25T21:12:01.024Z,92.00
2018-03-25T21:14:28.651Z,91.90
2018-03-25T21:16:56.253Z,92.00
2018-03-25T21:19:24.000Z,92.30
2018-03-25T21:21:51.583Z,92.40
2018-03-25T21:24:19.437Z,92.20
2018-03-25T21:26:46.997Z,92.40
2018-03-25T21:29:14.563Z,92.60
2018-03-25T21:31:42.167Z,92.60
2018-03-25T21:34:09.728Z,92.50
2018-03-25T21:36:37.278Z,92.50
2018-03-25T21:39:05.709Z,92.80
2018-03-25T21:41:33.308Z,92.80
2018-03-25T21:44:01.198Z,92.50
2018-03-25T21:46:28.942Z,92.60
2018-03-25T21:48:57.267Z,92.80
2018-03-25T21:51:24.825Z,92.80
2018-03-25T21:53:52.433Z,92.80
2018-03-25T21:56:19.995Z,92.80
2018-03-25T21:58:48.405Z,92.50
2018-03-25T22:01:16.082Z,92.50
2018-03-25T22:03:43.642Z,92.50
2018-03-25T22:06:11.196Z,92.60
2018-03-25T22:08:38.805Z,92.60
2018-03-25T22:11:06.364Z,92.60
2018-03-25T22:13:34.673Z,92.90
2018-03-25T22:16:02.334Z,92.90
2018-03-25T22:18:30.913Z,92.80
2018-03-25T22:20:58.466Z,92.80
2018-03-25T22:23:26.117Z,93.00
2018-03-25T22:25:53.694Z,93.10
2018-03-25T22:28:21.334Z,93.00
2018-03-25T22:30:48.939Z,92.90
2018-03-25T22:33:16.550Z,92.90
2018-03-25T22:35:44.134Z,92.80
2018-03-25T22:38:11.737Z,93.10
2018-03-25T22:40:40.955Z,93.30
2018-03-25T22:43:09.278Z,93.00
2018-03-25T22:45:36.866Z,93.00
2018-03-25T22:48:04.438Z,92.90
2018-03-25T22:50:32.753Z,93.20
2018-03-25T22:53:00.342Z,93.20
2018-03-25T22:55:27.893Z,93.20
2018-03-25T22:57:55.445Z,93.30
2018-03-25T23:00:23.166Z,93.20
2018-03-25T23:02:50.721Z,93.40
2018-03-25T23:05:19.140Z,93.50
2018-03-25T23:07:46.726Z,93.50
2018-03-25T23:12:47.253Z,93.70
2018-03-25T23:15:14.878Z,93.30
2018-03-25T23:17:42.445Z,93.50
2018-03-25T23:20:10.071Z,93.90
2018-03-25T23:22:38.384Z,93.80
2018-03-25T23:25:05.930Z,93.80
2018-03-25T23:27:33.537Z,93.60
2018-03-25T23:30:01.093Z,93.50
2018-03-25T23:32:28.703Z,93.80
2018-03-25T23:34:56.287Z,93.90
2018-03-25T23:37:23.852Z,94.10
2018-03-25T23:39:51.398Z,94.00
2018-03-25T23:42:19.229Z,94.00
2018-03-25T23:44:47.541Z,94.20
2018-03-25T23:47:15.285Z,94.10
2018-03-25T23:49:42.869Z,93.80
2018-03-25T23:52:10.513Z,93.90
2018-03-25T23:54:38.149Z,93.60
2018-03-25T23:57:06.502Z,94.40
2018-03-25T23:59:35.608Z,94.10
